sensor_id;sensor_type;location;lat;lon;timestamp;temperature;humidity
32506;DHT22;18955;51.224;8.482;2022-08-19T00:00:30;18.10;70.50
32506;DHT22;18955;51.224;8.482;2022-08-19T00:02:56;18.10;70.50
32506;DHT22;18955;51.224;8.482;2022-08-19T00:05:23;18.10;70.60
32506;DHT22;18955;51.224;8.482;2022-08-19T00:07:49;18.10;70.40
32506;DHT22;18955;51.224;8.482;2022-08-19T00:10:17;18.10;70.50
32506;DHT22;18955;51.224;8.482;2022-08-19T00:12:44;18.10;70.60
32506;DHT22;18955;51.224;8.482;2022-08-19T00:15:13;18.00;70.80
32506;DHT22;18955;51.224;8.482;2022-08-19T00:17:42;18.10;70.80
32506;DHT22;18955;51.224;8.482;2022-08-19T00:20:10;18.00;70.70
32506;DHT22;18955;51.224;8.482;2022-08-19T00:22:38;18.00;70.60
32506;DHT22;18955;51.224;8.482;2022-08-19T00:25:07;18.00;70.50
32506;DHT22;18955;51.224;8.482;2022-08-19T00:27:33;18.00;70.80
32506;DHT22;18955;51.224;8.482;2022-08-19T00:30:00;18.00;70.80
32506;DHT22;18955;51.224;8.482;2022-08-19T00:32:28;18.00;71.10
32506;DHT22;18955;51.224;8.482;2022-08-19T00:34:55;18.00;70.90
32506;DHT22;18955;51.224;8.482;2022-08-19T00:37:22;18.00;70.90
32506;DHT22;18955;51.224;8.482;2022-08-19T00:39:49;17.90;70.70
32506;DHT22;18955;51.224;8.482;2022-08-19T00:42:17;18.00;70.50
32506;DHT22;18955;51.224;8.482;2022-08-19T00:44:44;17.90;70.70
32506;DHT22;18955;51.224;8.482;2022-08-19T00:47:11;17.90;70.70
32506;DHT22;18955;51.224;8.482;2022-08-19T00:49:53;17.90;70.70
32506;DHT22;18955;51.224;8.482;2022-08-19T00:52:26;17.90;70.80
32506;DHT22;18955;51.224;8.482;2022-08-19T00:54:55;17.90;70.90
32506;DHT22;18955;51.224;8.482;2022-08-19T00:57:35;17.80;70.60
32506;DHT22;18955;51.224;8.482;2022-08-19T01:00:06;17.90;70.60
32506;DHT22;18955;51.224;8.482;2022-08-19T01:02:33;17.80;70.70
32506;DHT22;18955;51.224;8.482;2022-08-19T01:05:03;17.80;70.90
32506;DHT22;18955;51.224;8.482;2022-08-19T01:07:30;17.80;71.00
32506;DHT22;18955;51.224;8.482;2022-08-19T01:09:56;17.80;70.90
32506;DHT22;18955;51.224;8.482;2022-08-19T01:12:23;17.80;71.00
32506;DHT22;18955;51.224;8.482;2022-08-19T01:14:50;17.80;70.60
32506;DHT22;18955;51.224;8.482;2022-08-19T01:17:17;17.80;70.90
32506;DHT22;18955;51.224;8.482;2022-08-19T01:19:46;17.80;70.90
32506;DHT22;18955;51.224;8.482;2022-08-19T01:22:18;17.80;70.90
32506;DHT22;18955;51.224;8.482;2022-08-19T01:24:45;17.80;70.80
32506;DHT22;18955;51.224;8.482;2022-08-19T01:27:12;17.80;70.80
32506;DHT22;18955;51.224;8.482;2022-08-19T01:29:40;17.80;70.90
32506;DHT22;18955;51.224;8.482;2022-08-19T01:32:09;17.70;70.60
32506;DHT22;18955;51.224;8.482;2022-08-19T01:34:38;17.70;70.60
32506;DHT22;18955;51.224;8.482;2022-08-19T01:37:09;17.70;70.80
32506;DHT22;18955;51.224;8.482;2022-08-19T01:39:38;17.70;70.90
32506;DHT22;18955;51.224;8.482;2022-08-19T01:42:06;17.70;71.20
32506;DHT22;18955;51.224;8.482;2022-08-19T01:44:33;17.70;70.90
32506;DHT22;18955;51.224;8.482;2022-08-19T01:46:59;17.70;71.10
32506;DHT22;18955;51.224;8.482;2022-08-19T01:49:25;17.70;70.60
32506;DHT22;18955;51.224;8.482;2022-08-19T01:51:52;17.70;71.00
32506;DHT22;18955;51.224;8.482;2022-08-19T01:54:22;17.70;70.90
32506;DHT22;18955;51.224;8.482;2022-08-19T01:56:53;17.60;71.00
32506;DHT22;18955;51.224;8.482;2022-08-19T01:59:22;17.70;70.90
32506;DHT22;18955;51.224;8.482;2022-08-19T02:01:49;17.60;70.80
32506;DHT22;18955;51.224;8.482;2022-08-19T02:04:15;17.60;71.10
32506;DHT22;18955;51.224;8.482;2022-08-19T02:06:41;17.60;70.60
32506;DHT22;18955;51.224;8.482;2022-08-19T02:09:08;17.60;70.80
32506;DHT22;18955;51.224;8.482;2022-08-19T02:11:35;17.60;70.80
32506;DHT22;18955;51.224;8.482;2022-08-19T02:14:05;17.60;70.90
32506;DHT22;18955;51.224;8.482;2022-08-19T02:16:31;17.60;71.00
32506;DHT22;18955;51.224;8.482;2022-08-19T02:18:58;17.60;70.80
32506;DHT22;18955;51.224;8.482;2022-08-19T02:21:28;17.60;70.90
32506;DHT22;18955;51.224;8.482;2022-08-19T02:23:55;17.60;70.60
32506;DHT22;18955;51.224;8.482;2022-08-19T02:26:22;17.60;70.80
32506;DHT22;18955;51.224;8.482;2022-08-19T02:28:49;17.60;71.00
32506;DHT22;18955;51.224;8.482;2022-08-19T02:31:18;17.50;70.90
32506;DHT22;18955;51.224;8.482;2022-08-19T02:33:45;17.50;70.90
32506;DHT22;18955;51.224;8.482;2022-08-19T02:36:14;17.50;70.80
32506;DHT22;18955;51.224;8.482;2022-08-19T02:38:40;17.50;70.90
32506;DHT22;18955;51.224;8.482;2022-08-19T02:41:11;17.50;70.60
32506;DHT22;18955;51.224;8.482;2022-08-19T02:43:38;17.50;70.80
32506;DHT22;18955;51.224;8.482;2022-08-19T02:48:39;17.50;71.00
32506;DHT22;18955;51.224;8.482;2022-08-19T02:51:05;17.50;71.00
32506;DHT22;18955;51.224;8.482;2022-08-19T02:53:32;17.40;70.90
32506;DHT22;18955;51.224;8.482;2022-08-19T02:55:58;17.40;71.00
32506;DHT22;18955;51.224;8.482;2022-08-19T02:58:24;17.40;70.60
32506;DHT22;18955;51.224;8.482;2022-08-19T03:00:54;17.40;70.90
32506;DHT22;18955;51.224;8.482;2022-08-19T03:03:21;17.40;70.90
32506;DHT22;18955;51.224;8.482;2022-08-19T03:05:47;17.40;70.90
32506;DHT22;18955;51.224;8.482;2022-08-19T03:08:13;17.40;71.10
32506;DHT22;18955;51.224;8.482;2022-08-19T03:10:42;17.40;70.90
32506;DHT22;18955;51.224;8.482;2022-08-19T03:13:11;17.40;71.00
32506;DHT22;18955;51.224;8.482;2022-08-19T03:15:42;17.40;70.70
32506;DHT22;18955;51.224;8.482;2022-08-19T03:18:09;17.40;71.00
32506;DHT22;18955;51.224;8.482;2022-08-19T03:20:47;17.40;70.90
32506;DHT22;18955;51.224;8.482;2022-08-19T03:23:15;17.40;71.10
32506;DHT22;18955;51.224;8.482;2022-08-19T03:25:45;17.30;70.90
32506;DHT22;18955;51.224;8.482;2022-08-19T03:28:13;17.40;70.70
32506;DHT22;18955;51.224;8.482;2022-08-19T03:30:41;17.40;71.20
32506;DHT22;18955;51.224;8.482;2022-08-19T03:33:09;17.30;70.70
32506;DHT22;18955;51.224;8.482;2022-08-19T03:35:35;17.30;70.80
32506;DHT22;18955;51.224;8.482;2022-08-19T03:38:05;17.30;70.80
32506;DHT22;18955;51.224;8.482;2022-08-19T03:40:33;17.30;71.00
32506;DHT22;18955;51.224;8.482;2022-08-19T03:43:02;17.30;70.90
32506;DHT22;18955;51.224;8.482;2022-08-19T03:45:28;17.30;70.90
32506;DHT22;18955;51.224;8.482;2022-08-19T03:47:55;17.30;71.00
32506;DHT22;18955;51.224;8.482;2022-08-19T03:50:21;17.30;70.70
32506;DHT22;18955;51.224;8.482;2022-08-19T03:52:49;17.30;71.50
32506;DHT22;18955;51.224;8.482;2022-08-19T03:55:17;17.30;70.80
32506;DHT22;18955;51.224;8.482;2022-08-19T03:57:44;17.30;71.00
32506;DHT22;18955;51.224;8.482;2022-08-19T04:00:12;17.30;71.00
32506;DHT22;18955;51.224;8.482;2022-08-19T04:02:39;17.20;70.80
32506;DHT22;18955;51.224;8.482;2022-08-19T04:05:06;17.20;71.10
32506;DHT22;18955;51.224;8.482;2022-08-19T04:07:34;17.20;70.70
32506;DHT22;18955;51.224;8.482;2022-08-19T04:10:00;17.20;70.80
32506;DHT22;18955;51.224;8.482;2022-08-19T04:12:26;17.20;71.10
32506;DHT22;18955;51.224;8.482;2022-08-19T04:14:53;17.20;70.90
32506;DHT22;18955;51.224;8.482;2022-08-19T04:17:19;17.20;71.00
32506;DHT22;18955;51.224;8.482;2022-08-19T04:19:45;17.20;71.00
32506;DHT22;18955;51.224;8.482;2022-08-19T04:22:11;17.20;71.10
32506;DHT22;18955;51.224;8.482;2022-08-19T04:24:38;17.20;70.90
32506;DHT22;18955;51.224;8.482;2022-08-19T04:27:04;17.10;70.90
32506;DHT22;18955;51.224;8.482;2022-08-19T04:29:32;17.20;71.20
32506;DHT22;18955;51.224;8.482;2022-08-19T04:31:59;17.20;71.10
32506;DHT22;18955;51.224;8.482;2022-08-19T04:34:26;17.10;71.00
32506;DHT22;18955;51.224;8.482;2022-08-19T04:36:56;17.10;71.10
32506;DHT22;18955;51.224;8.482;2022-08-19T04:39:26;17.10;71.10
32506;DHT22;18955;51.224;8.482;2022-08-19T04:42:14;17.10;71.00
32506;DHT22;18955;51.224;8.482;2022-08-19T04:44:59;17.10;70.90
32506;DHT22;18955;51.224;8.482;2022-08-19T04:47:25;17.10;71.00
32506;DHT22;18955;51.224;8.482;2022-08-19T04:49:52;17.10;70.90
32506;DHT22;18955;51.224;8.482;2022-08-19T04:52:18;17.10;70.90
32506;DHT22;18955;51.224;8.482;2022-08-19T04:54:44;17.10;71.00
32506;DHT22;18955;51.224;8.482;2022-08-19T04:57:10;17.00;71.00
32506;DHT22;18955;51.224;8.482;2022-08-19T04:59:38;17.10;71.00
32506;DHT22;18955;51.224;8.482;2022-08-19T05:02:06;17.00;70.90
32506;DHT22;18955;51.224;8.482;2022-08-19T05:04:32;17.10;70.90
32506;DHT22;18955;51.224;8.482;2022-08-19T05:07:00;17.00;71.10
32506;DHT22;18955;51.224;8.482;2022-08-19T05:09:29;17.00;71.00
32506;DHT22;18955;51.224;8.482;2022-08-19T05:11:56;17.00;70.90
32506;DHT22;18955;51.224;8.482;2022-08-19T05:14:22;17.00;71.10
32506;DHT22;18955;51.224;8.482;2022-08-19T05:16:49;17.00;71.00
32506;DHT22;18955;51.224;8.482;2022-08-19T05:19:15;17.00;71.00
32506;DHT22;18955;51.224;8.482;2022-08-19T05:22:00;17.00;71.10
32506;DHT22;18955;51.224;8.482;2022-08-19T05:24:45;17.00;70.90
32506;DHT22;18955;51.224;8.482;2022-08-19T05:27:11;17.00;71.00
32506;DHT22;18955;51.224;8.482;2022-08-19T05:29:37;17.00;70.80
32506;DHT22;18955;51.224;8.482;2022-08-19T05:32:05;17.00;71.00
32506;DHT22;18955;51.224;8.482;2022-08-19T05:34:33;17.00;70.80
32506;DHT22;18955;51.224;8.482;2022-08-19T05:37:01;16.90;71.10
32506;DHT22;18955;51.224;8.482;2022-08-19T05:39:29;17.00;71.00
32506;DHT22;18955;51.224;8.482;2022-08-19T05:41:59;16.90;70.80
32506;DHT22;18955;51.224;8.482;2022-08-19T05:44:30;17.00;71.00
32506;DHT22;18955;51.224;8.482;2022-08-19T05:46:58;16.90;70.80
32506;DHT22;18955;51.224;8.482;2022-08-19T05:49:26;16.90;70.90
32506;DHT22;18955;51.224;8.482;2022-08-19T05:51:53;16.90;70.70
32506;DHT22;18955;51.224;8.482;2022-08-19T05:54:21;16.90;70.80
32506;DHT22;18955;51.224;8.482;2022-08-19T05:56:50;16.90;70.90
32506;DHT22;18955;51.224;8.482;2022-08-19T05:59:17;16.90;71.00
32506;DHT22;18955;51.224;8.482;2022-08-19T06:01:46;16.90;70.80
32506;DHT22;18955;51.224;8.482;2022-08-19T06:04:13;16.90;70.70
32506;DHT22;18955;51.224;8.482;2022-08-19T06:06:39;16.90;70.80
32506;DHT22;18955;51.224;8.482;2022-08-19T06:09:07;16.90;70.80
32506;DHT22;18955;51.224;8.482;2022-08-19T06:14:17;16.90;70.80
32506;DHT22;18955;51.224;8.482;2022-08-19T06:16:44;16.90;70.70
32506;DHT22;18955;51.224;8.482;2022-08-19T06:19:14;16.90;70.70
32506;DHT22;18955;51.224;8.482;2022-08-19T06:21:44;16.90;70.70
32506;DHT22;18955;51.224;8.482;2022-08-19T06:24:15;16.90;70.70
32506;DHT22;18955;51.224;8.482;2022-08-19T06:26:44;16.90;70.80
32506;DHT22;18955;51.224;8.482;2022-08-19T06:29:12;16.90;70.60
32506;DHT22;18955;51.224;8.482;2022-08-19T06:31:43;16.90;70.70
32506;DHT22;18955;51.224;8.482;2022-08-19T06:34:09;16.90;70.50
32506;DHT22;18955;51.224;8.482;2022-08-19T06:36:42;16.90;70.60
32506;DHT22;18955;51.224;8.482;2022-08-19T06:39:18;16.90;70.60
32506;DHT22;18955;51.224;8.482;2022-08-19T06:41:47;16.90;70.30
32506;DHT22;18955;51.224;8.482;2022-08-19T06:44:18;17.00;70.30
32506;DHT22;18955;51.224;8.482;2022-08-19T06:46:45;16.90;70.40
32506;DHT22;18955;51.224;8.482;2022-08-19T06:49:12;17.00;70.40
32506;DHT22;18955;51.224;8.482;2022-08-19T06:51:45;17.00;70.30
32506;DHT22;18955;51.224;8.482;2022-08-19T06:54:14;16.90;70.30
32506;DHT22;18955;51.224;8.482;2022-08-19T06:56:41;16.90;70.30
32506;DHT22;18955;51.224;8.482;2022-08-19T06:59:08;17.00;70.10
32506;DHT22;18955;51.224;8.482;2022-08-19T07:01:41;17.00;70.20
32506;DHT22;18955;51.224;8.482;2022-08-19T07:04:09;17.00;70.10
32506;DHT22;18955;51.224;8.482;2022-08-19T07:06:36;17.00;70.10
32506;DHT22;18955;51.224;8.482;2022-08-19T07:09:04;17.00;70.10
32506;DHT22;18955;51.224;8.482;2022-08-19T07:11:31;17.00;70.10
32506;DHT22;18955;51.224;8.482;2022-08-19T07:13:59;17.00;70.10
32506;DHT22;18955;51.224;8.482;2022-08-19T07:16:25;17.00;69.90
32506;DHT22;18955;51.224;8.482;2022-08-19T07:18:52;17.00;70.00
32506;DHT22;18955;51.224;8.482;2022-08-19T07:21:23;17.00;70.00
32506;DHT22;18955;51.224;8.482;2022-08-19T07:23:50;17.00;69.90
32506;DHT22;18955;51.224;8.482;2022-08-19T07:26:26;17.00;69.90
32506;DHT22;18955;51.224;8.482;2022-08-19T07:28:54;17.00;70.00
32506;DHT22;18955;51.224;8.482;2022-08-19T07:31:22;17.00;69.90
32506;DHT22;18955;51.224;8.482;2022-08-19T07:33:51;17.10;69.90
32506;DHT22;18955;51.224;8.482;2022-08-19T07:36:20;17.10;69.90
32506;DHT22;18955;51.224;8.482;2022-08-19T07:38:48;17.10;69.90
32506;DHT22;18955;51.224;8.482;2022-08-19T07:41:22;17.10;70.00
32506;DHT22;18955;51.224;8.482;2022-08-19T07:43:49;17.10;70.10
32506;DHT22;18955;51.224;8.482;2022-08-19T07:46:16;17.10;70.00
32506;DHT22;18955;51.224;8.482;2022-08-19T07:48:43;17.00;69.90
32506;DHT22;18955;51.224;8.482;2022-08-19T07:51:15;17.10;69.80
32506;DHT22;18955;51.224;8.482;2022-08-19T07:53:41;17.10;69.90
32506;DHT22;18955;51.224;8.482;2022-08-19T07:56:09;17.10;70.00
32506;DHT22;18955;51.224;8.482;2022-08-19T07:58:39;17.10;70.10
32506;DHT22;18955;51.224;8.482;2022-08-19T08:01:07;17.10;70.00
32506;DHT22;18955;51.224;8.482;2022-08-19T08:03:36;17.10;69.90
32506;DHT22;18955;51.224;8.482;2022-08-19T08:06:20;17.10;70.00
32506;DHT22;18955;51.224;8.482;2022-08-19T08:09:06;17.10;70.00
32506;DHT22;18955;51.224;8.482;2022-08-19T08:11:53;17.20;70.10
32506;DHT22;18955;51.224;8.482;2022-08-19T08:14:23;17.10;70.10
32506;DHT22;18955;51.224;8.482;2022-08-19T08:16:51;17.20;70.10
32506;DHT22;18955;51.224;8.482;2022-08-19T08:19:20;17.10;70.10
32506;DHT22;18955;51.224;8.482;2022-08-19T08:21:47;17.20;70.20
32506;DHT22;18955;51.224;8.482;2022-08-19T08:24:15;17.20;70.20
32506;DHT22;18955;51.224;8.482;2022-08-19T08:26:42;17.20;70.00
32506;DHT22;18955;51.224;8.482;2022-08-19T08:29:13;17.20;70.00
32506;DHT22;18955;51.224;8.482;2022-08-19T08:31:40;17.30;70.00
32506;DHT22;18955;51.224;8.482;2022-08-19T08:34:08;17.30;70.00
32506;DHT22;18955;51.224;8.482;2022-08-19T08:36:43;17.30;70.00
32506;DHT22;18955;51.224;8.482;2022-08-19T08:39:16;17.40;70.10
32506;DHT22;18955;51.224;8.482;2022-08-19T08:41:50;17.40;70.10
32506;DHT22;18955;51.224;8.482;2022-08-19T08:44:58;17.40;70.10
32506;DHT22;18955;51.224;8.482;2022-08-19T08:47:26;17.40;70.20
32506;DHT22;18955;51.224;8.482;2022-08-19T08:52:56;17.50;70.30
32506;DHT22;18955;51.224;8.482;2022-08-19T08:55:26;17.50;70.60
32506;DHT22;18955;51.224;8.482;2022-08-19T08:57:55;17.50;70.60
32506;DHT22;18955;51.224;8.482;2022-08-19T09:00:33;17.50;70.60
32506;DHT22;18955;51.224;8.482;2022-08-19T09:03:00;17.50;70.40
32506;DHT22;18955;51.224;8.482;2022-08-19T09:12:10;17.60;70.50
32506;DHT22;18955;51.224;8.482;2022-08-19T09:17:00;17.60;70.30
32506;DHT22;18955;51.224;8.482;2022-08-19T09:19:29;17.70;70.40
32506;DHT22;18955;51.224;8.482;2022-08-19T09:21:56;17.70;70.30
32506;DHT22;18955;51.224;8.482;2022-08-19T09:24:22;17.70;70.30
32506;DHT22;18955;51.224;8.482;2022-08-19T09:26:49;17.80;70.30
32506;DHT22;18955;51.224;8.482;2022-08-19T09:29:15;17.80;70.40
32506;DHT22;18955;51.224;8.482;2022-08-19T09:31:42;17.80;70.40
32506;DHT22;18955;51.224;8.482;2022-08-19T09:34:08;17.80;70.50
32506;DHT22;18955;51.224;8.482;2022-08-19T09:36:34;17.80;70.50
32506;DHT22;18955;51.224;8.482;2022-08-19T09:39:05;17.90;70.50
32506;DHT22;18955;51.224;8.482;2022-08-19T09:41:32;17.90;70.40
32506;DHT22;18955;51.224;8.482;2022-08-19T09:43:58;18.00;70.60
32506;DHT22;18955;51.224;8.482;2022-08-19T09:46:27;17.90;70.50
32506;DHT22;18955;51.224;8.482;2022-08-19T09:48:57;18.00;70.70
32506;DHT22;18955;51.224;8.482;2022-08-19T09:51:25;17.90;70.80
32506;DHT22;18955;51.224;8.482;2022-08-19T09:53:59;18.00;70.90
32506;DHT22;18955;51.224;8.482;2022-08-19T09:56:25;18.00;70.90
32506;DHT22;18955;51.224;8.482;2022-08-19T09:58:51;18.00;70.80
32506;DHT22;18955;51.224;8.482;2022-08-19T10:01:20;18.00;70.70
32506;DHT22;18955;51.224;8.482;2022-08-19T10:03:49;18.00;70.80
32506;DHT22;18955;51.224;8.482;2022-08-19T10:06:17;18.00;70.80
32506;DHT22;18955;51.224;8.482;2022-08-19T10:08:43;18.00;70.80
32506;DHT22;18955;51.224;8.482;2022-08-19T10:11:10;18.00;70.80
32506;DHT22;18955;51.224;8.482;2022-08-19T10:13:36;18.10;70.80
32506;DHT22;18955;51.224;8.482;2022-08-19T10:16:06;18.10;70.80
32506;DHT22;18955;51.224;8.482;2022-08-19T10:18:33;18.10;70.80
32506;DHT22;18955;51.224;8.482;2022-08-19T10:21:10;18.10;70.80
32506;DHT22;18955;51.224;8.482;2022-08-19T10:23:39;18.10;70.70
32506;DHT22;18955;51.224;8.482;2022-08-19T10:26:06;18.20;70.90
32506;DHT22;18955;51.224;8.482;2022-08-19T10:28:34;18.10;70.70
32506;DHT22;18955;51.224;8.482;2022-08-19T10:31:05;18.20;70.80
32506;DHT22;18955;51.224;8.482;2022-08-19T10:33:32;18.20;70.80
32506;DHT22;18955;51.224;8.482;2022-08-19T10:36:00;18.20;70.70
32506;DHT22;18955;51.224;8.482;2022-08-19T10:38:27;18.20;70.70
32506;DHT22;18955;51.224;8.482;2022-08-19T10:40:55;18.30;70.70
32506;DHT22;18955;51.224;8.482;2022-08-19T10:43:21;18.30;70.70
32506;DHT22;18955;51.224;8.482;2022-08-19T10:45:54;18.30;70.70
32506;DHT22;18955;51.224;8.482;2022-08-19T10:48:22;18.30;70.70
32506;DHT22;18955;51.224;8.482;2022-08-19T10:50:48;18.30;70.70
32506;DHT22;18955;51.224;8.482;2022-08-19T10:53:33;18.30;70.80
32506;DHT22;18955;51.224;8.482;2022-08-19T10:55:59;18.40;70.80
32506;DHT22;18955;51.224;8.482;2022-08-19T10:58:44;18.40;70.70
32506;DHT22;18955;51.224;8.482;2022-08-19T11:01:10;18.40;70.80
32506;DHT22;18955;51.224;8.482;2022-08-19T11:03:36;18.40;70.80
32506;DHT22;18955;51.224;8.482;2022-08-19T11:06:06;18.50;70.90
32506;DHT22;18955;51.224;8.482;2022-08-19T11:08:35;18.50;70.90
32506;DHT22;18955;51.224;8.482;2022-08-19T11:11:06;18.50;70.90
32506;DHT22;18955;51.224;8.482;2022-08-19T11:13:35;18.50;70.90
32506;DHT22;18955;51.224;8.482;2022-08-19T11:16:12;18.50;70.80
32506;DHT22;18955;51.224;8.482;2022-08-19T11:18:42;18.60;70.80
32506;DHT22;18955;51.224;8.482;2022-08-19T11:21:15;18.60;70.90
32506;DHT22;18955;51.224;8.482;2022-08-19T11:23:43;18.60;70.90
32506;DHT22;18955;51.224;8.482;2022-08-19T11:26:09;18.60;70.90
32506;DHT22;18955;51.224;8.482;2022-08-19T11:28:36;18.60;70.90
32506;DHT22;18955;51.224;8.482;2022-08-19T11:31:03;18.70;70.90
32506;DHT22;18955;51.224;8.482;2022-08-19T11:33:32;18.70;70.90
32506;DHT22;18955;51.224;8.482;2022-08-19T11:35:59;18.70;70.90
32506;DHT22;18955;51.224;8.482;2022-08-19T11:38:26;18.70;70.80
32506;DHT22;18955;51.224;8.482;2022-08-19T11:41:02;18.70;70.90
32506;DHT22;18955;51.224;8.482;2022-08-19T11:43:29;18.70;70.90
32506;DHT22;18955;51.224;8.482;2022-08-19T11:45:56;18.70;70.90
32506;DHT22;18955;51.224;8.482;2022-08-19T11:48:23;18.80;70.90
32506;DHT22;18955;51.224;8.482;2022-08-19T11:50:50;18.80;70.90
32506;DHT22;18955;51.224;8.482;2022-08-19T11:53:19;18.80;71.00
32506;DHT22;18955;51.224;8.482;2022-08-19T11:55:47;18.80;70.80
32506;DHT22;18955;51.224;8.482;2022-08-19T11:58:15;18.90;70.90
32506;DHT22;18955;51.224;8.482;2022-08-19T12:00:41;18.90;70.90
32506;DHT22;18955;51.224;8.482;2022-08-19T12:03:08;18.90;70.90
32506;DHT22;18955;51.224;8.482;2022-08-19T12:05:37;18.90;70.90
32506;DHT22;18955;51.224;8.482;2022-08-19T12:08:04;18.90;71.00
32506;DHT22;18955;51.224;8.482;2022-08-19T12:10:30;18.90;71.00
32506;DHT22;18955;51.224;8.482;2022-08-19T12:12:56;19.00;71.00
32506;DHT22;18955;51.224;8.482;2022-08-19T12:15:22;19.00;70.90
32506;DHT22;18955;51.224;8.482;2022-08-19T12:17:49;19.00;70.90
32506;DHT22;18955;51.224;8.482;2022-08-19T12:20:15;19.00;70.90
32506;DHT22;18955;51.224;8.482;2022-08-19T12:22:43;19.10;71.00
32506;DHT22;18955;51.224;8.482;2022-08-19T12:25:10;19.10;71.00
32506;DHT22;18955;51.224;8.482;2022-08-19T12:27:38;19.10;71.00
32506;DHT22;18955;51.224;8.482;2022-08-19T12:30:07;19.10;71.00
32506;DHT22;18955;51.224;8.482;2022-08-19T12:32:34;19.10;70.90
32506;DHT22;18955;51.224;8.482;2022-08-19T12:35:00;19.10;71.00
32506;DHT22;18955;51.224;8.482;2022-08-19T12:37:27;19.20;71.00
32506;DHT22;18955;51.224;8.482;2022-08-19T12:39:53;19.20;71.00
32506;DHT22;18955;51.224;8.482;2022-08-19T12:42:19;19.20;71.10
32506;DHT22;18955;51.224;8.482;2022-08-19T12:44:47;19.20;71.00
32506;DHT22;18955;51.224;8.482;2022-08-19T12:47:14;19.20;70.90
32506;DHT22;18955;51.224;8.482;2022-08-19T12:49:41;19.20;71.00
32506;DHT22;18955;51.224;8.482;2022-08-19T12:52:08;19.20;70.80
32506;DHT22;18955;51.224;8.482;2022-08-19T12:54:36;19.30;70.90
32506;DHT22;18955;51.224;8.482;2022-08-19T12:57:07;19.30;70.90
32506;DHT22;18955;51.224;8.482;2022-08-19T12:59:35;19.30;70.90
32506;DHT22;18955;51.224;8.482;2022-08-19T13:02:04;19.30;70.90
32506;DHT22;18955;51.224;8.482;2022-08-19T13:04:32;19.30;70.80
32506;DHT22;18955;51.224;8.482;2022-08-19T13:07:01;19.40;70.80
32506;DHT22;18955;51.224;8.482;2022-08-19T13:09:28;19.40;70.70
32506;DHT22;18955;51.224;8.482;2022-08-19T13:11:54;19.40;70.70
32506;DHT22;18955;51.224;8.482;2022-08-19T13:14:22;19.40;70.70
32506;DHT22;18955;51.224;8.482;2022-08-19T13:16:48;19.40;70.60
32506;DHT22;18955;51.224;8.482;2022-08-19T13:19:15;19.40;70.60
32506;DHT22;18955;51.224;8.482;2022-08-19T13:21:41;19.50;70.70
32506;DHT22;18955;51.224;8.482;2022-08-19T13:24:07;19.50;70.60
32506;DHT22;18955;51.224;8.482;2022-08-19T13:26:34;19.50;70.60
32506;DHT22;18955;51.224;8.482;2022-08-19T13:29:00;19.50;70.70
32506;DHT22;18955;51.224;8.482;2022-08-19T13:31:45;19.50;70.70
32506;DHT22;18955;51.224;8.482;2022-08-19T13:34:34;19.60;70.70
32506;DHT22;18955;51.224;8.482;2022-08-19T13:37:03;19.60;70.70
32506;DHT22;18955;51.224;8.482;2022-08-19T13:39:31;19.60;70.60
32506;DHT22;18955;51.224;8.482;2022-08-19T13:41:58;19.70;70.70
32506;DHT22;18955;51.224;8.482;2022-08-19T13:44:26;19.60;70.70
32506;DHT22;18955;51.224;8.482;2022-08-19T13:47:00;19.70;70.80
32506;DHT22;18955;51.224;8.482;2022-08-19T13:49:28;19.70;70.70
32506;DHT22;18955;51.224;8.482;2022-08-19T13:51:56;19.70;70.70
32506;DHT22;18955;51.224;8.482;2022-08-19T13:54:22;19.80;70.70
32506;DHT22;18955;51.224;8.482;2022-08-19T13:56:49;19.80;70.60
32506;DHT22;18955;51.224;8.482;2022-08-19T13:59:15;19.80;70.80
32506;DHT22;18955;51.224;8.482;2022-08-19T14:01:41;19.80;70.80
32506;DHT22;18955;51.224;8.482;2022-08-19T14:04:08;19.80;70.70
32506;DHT22;18955;51.224;8.482;2022-08-19T14:06:35;19.80;70.70
32506;DHT22;18955;51.224;8.482;2022-08-19T14:09:01;19.80;70.80
32506;DHT22;18955;51.224;8.482;2022-08-19T14:11:29;19.90;70.70
32506;DHT22;18955;51.224;8.482;2022-08-19T14:13:55;19.90;70.70
32506;DHT22;18955;51.224;8.482;2022-08-19T14:16:21;20.00;70.70
32506;DHT22;18955;51.224;8.482;2022-08-19T14:18:48;20.00;70.70
32506;DHT22;18955;51.224;8.482;2022-08-19T14:21:20;20.00;70.70
32506;DHT22;18955;51.224;8.482;2022-08-19T14:23:48;20.10;70.70
32506;DHT22;18955;51.224;8.482;2022-08-19T14:26:16;20.10;70.60
32506;DHT22;18955;51.224;8.482;2022-08-19T14:28:44;20.10;70.40
32506;DHT22;18955;51.224;8.482;2022-08-19T14:31:12;20.20;70.50
32506;DHT22;18955;51.224;8.482;2022-08-19T14:33:39;20.20;70.40
32506;DHT22;18955;51.224;8.482;2022-08-19T14:36:06;20.30;70.30
32506;DHT22;18955;51.224;8.482;2022-08-19T14:38:33;20.30;70.30
32506;DHT22;18955;51.224;8.482;2022-08-19T14:41:17;20.30;70.20
32506;DHT22;18955;51.224;8.482;2022-08-19T14:43:50;20.30;70.30
32506;DHT22;18955;51.224;8.482;2022-08-19T14:46:21;20.40;70.30
32506;DHT22;18955;51.224;8.482;2022-08-19T14:48:49;20.40;70.20
32506;DHT22;18955;51.224;8.482;2022-08-19T14:51:16;20.50;70.20
32506;DHT22;18955;51.224;8.482;2022-08-19T14:53:43;20.50;70.10
32506;DHT22;18955;51.224;8.482;2022-08-19T14:56:11;20.50;70.10
32506;DHT22;18955;51.224;8.482;2022-08-19T14:58:40;20.50;70.00
32506;DHT22;18955;51.224;8.482;2022-08-19T15:01:07;20.50;70.30
32506;DHT22;18955;51.224;8.482;2022-08-19T15:03:34;20.60;70.20
32506;DHT22;18955;51.224;8.482;2022-08-19T15:06:01;20.60;70.20
32506;DHT22;18955;51.224;8.482;2022-08-19T15:08:29;20.60;70.30
32506;DHT22;18955;51.224;8.482;2022-08-19T15:10:56;20.70;70.50
32506;DHT22;18955;51.224;8.482;2022-08-19T15:13:24;20.70;70.20
32506;DHT22;18955;51.224;8.482;2022-08-19T15:15:52;20.70;70.00
32506;DHT22;18955;51.224;8.482;2022-08-19T15:18:19;20.80;70.30
32506;DHT22;18955;51.224;8.482;2022-08-19T15:20:49;20.90;70.00
32506;DHT22;18955;51.224;8.482;2022-08-19T15:23:17;20.90;69.80
32506;DHT22;18955;51.224;8.482;2022-08-19T15:25:43;21.00;69.80
32506;DHT22;18955;51.224;8.482;2022-08-19T15:28:10;21.00;69.70
32506;DHT22;18955;51.224;8.482;2022-08-19T15:30:39;21.10;69.70
32506;DHT22;18955;51.224;8.482;2022-08-19T15:33:06;21.10;69.50
32506;DHT22;18955;51.224;8.482;2022-08-19T15:35:32;21.20;69.50
32506;DHT22;18955;51.224;8.482;2022-08-19T15:37:59;21.20;69.40
32506;DHT22;18955;51.224;8.482;2022-08-19T15:40:26;21.30;69.50
32506;DHT22;18955;51.224;8.482;2022-08-19T15:42:53;21.30;69.50
32506;DHT22;18955;51.224;8.482;2022-08-19T15:45:21;21.30;69.50
32506;DHT22;18955;51.224;8.482;2022-08-19T15:47:47;21.40;69.70
32506;DHT22;18955;51.224;8.482;2022-08-19T15:50:17;21.40;69.60
32506;DHT22;18955;51.224;8.482;2022-08-19T15:52:51;21.40;69.50
32506;DHT22;18955;51.224;8.482;2022-08-19T15:55:20;21.50;69.50